High Performance — A8HM2 — position and weather

sailwx.info

Track history (hours):
 
Tides and Currents Weather Stations Pressure Air Temp Water Temp Dewpoint Dewpoint Depression Visibility Wind Speed Wind Dir Waves Ship Positions

High Performance

Last reported at 2018-May-28 23:10 UTC. Time now 2018-Jun-20 16:58 UTC.
Position N 28°50' W 094°25'.
Warning: this ship's position is 22 days out of date.

Length 182 m; draft 11.2 m.

Type: Tanker. MMSI: 636012731.

Date/timePositionNaut miles runAvg speedWind from/ knotsBaromVisibWave heightAir tempDewpointWater temp
2018-May-28 23:10N 28°50' W 094°25'213.6
2018-May-28 23:00N 28°53' W 094°25'913.7
2018-May-28 22:22N 29°01' W 094°26'713.4
2018-May-28 21:53N 29°08' W 094°27'613.6
2018-May-28 21:28N 29°12' W 094°31'612.7
2018-May-28 21:00N 29°15' W 094°37'4 8.8
2018-May-28 20:30N 29°13' W 094°42'0 0.7
2018-May-28 19:58N 29°13' W 094°42'0 0.0
2018-May-28 19:28N 29°13' W 094°42'0 0.0
2018-May-28 18:58N 29°13' W 094°42'0 0.0
2018-May-28 18:28N 29°13' W 094°42'0 0.0
2018-May-28 17:58N 29°13' W 094°42'0 0.0
2018-May-28 17:28N 29°13' W 094°42'0 0.0
2018-May-28 16:58N 29°13' W 094°42'0 0.2
2018-May-28 16:29N 29°13' W 094°42'1 2.8
2018-May-28 15:58N 29°14' W 094°41'3 7.1
2018-May-28 15:31N 29°16' W 094°38'4 7.0
2018-May-28 14:59N 29°19' W 094°39'611.9
2018-May-28 14:30N 29°21' W 094°46'510.9
2018-May-28 14:00N 29°25' W 094°50'510.8
2018-May-28 13:30N 29°30' W 094°52'510.6
2018-May-28 13:00N 29°34' W 094°55'510.0
2018-May-28 12:30N 29°39' W 094°58'5 9.4
2018-May-28 12:00N 29°42' W 095°01'4 7.9
2018-May-28 11:30N 29°45' W 095°04'1 2.8
2018-May-28 10:59N 29°45' W 095°06'0 0.0
2018-May-28 10:23N 29°45' W 095°06'0 0.0
2018-May-28 09:44N 29°45' W 095°06'0 0.0
2018-May-28 09:29N 29°45' W 095°06'0 0.0
2018-May-27 14:59N 29°45' W 095°06'0 0.0
2018-May-27 14:29N 29°45' W 095°06'0 0.0
2018-May-27 13:56N 29°45' W 095°06'0 0.0
2018-May-27 13:23N 29°45' W 095°06'0 0.0
2018-May-27 12:17N 29°45' W 095°06'0 0.0
2018-May-27 01:26N 29°45' W 095°06'0 0.0
2018-May-26 23:24N 29°45' W 095°06'1 3.2
2018-May-26 23:00N 29°46' W 095°05'4 8.2
2018-May-26 22:30N 29°43' W 095°01'5 9.6
2018-May-26 22:00N 29°39' W 094°58'611.4
2018-May-26 21:29N 29°34' W 094°55'612.1
2018-May-26 21:00N 29°29' W 094°51'612.3
2018-May-26 20:30N 29°23' W 094°49'611.3
2018-May-26 20:00N 29°21' W 094°43'612.5
2018-May-26 19:30N 29°18' W 094°36'3 5.7
2018-May-26 19:00N 29°17' W 094°33'0 0.1
2018-May-26 18:30N 29°18' W 094°33'0 0.0
2018-May-26 18:00N 29°18' W 094°33'0 0.0
2018-May-26 16:52N 29°18' W 094°33'0 0.2
2018-May-26 16:27N 29°18' W 094°33'2 4.0
2018-May-26 16:00N 29°17' W 094°31'4 6.8
2018-May-26 15:28N 29°14' W 094°30'44 3.6
2018-May-26 03:20N 29°14' W 093°39'512.7
2018-May-26 02:58N 29°19' W 093°40'613.0
2018-May-26 02:30N 29°25' W 093°40'611.3
2018-May-26 02:00N 29°30' W 093°41'612.7
2018-May-26 01:30N 29°35' W 093°47'611.5
2018-May-26 01:00N 29°40' W 093°50'612.3
2018-May-26 00:30N 29°45' W 093°53'5 9.2
2018-May-26 00:00N 29°48' W 093°57'4 7.7
2018-May-25 23:30N 29°52' W 093°56'4 8.2
2018-May-25 23:00N 29°55' W 093°53'3 6.6
2018-May-25 22:30N 29°58' W 093°51'3 6.7
2018-May-25 22:00N 29°59' W 093°55'3 6.2
2018-May-25 21:30N 30°01' W 093°58'2 4.5
2018-May-25 21:00N 30°01' W 094°00'2 3.2
2018-May-25 20:31N 30°02' W 094°02'0 0.0
2018-May-25 19:59N 30°02' W 094°02'0 0.0
2018-May-25 19:29N 30°02' W 094°02'0 0.0
2018-May-25 18:59N 30°02' W 094°02'0 0.0
2018-May-25 18:29N 30°02' W 094°02'0 0.0
2018-May-25 17:59N 30°02' W 094°02'0 0.0
2018-May-25 17:29N 30°02' W 094°02'0 0.0
2018-May-25 16:59N 30°02' W 094°02'0 0.0
2018-May-25 16:29N 30°02' W 094°02'0 0.0
2018-May-25 15:59N 30°02' W 094°02'0 0.0
2018-May-25 15:29N 30°02' W 094°02'0 0.0
2018-May-25 14:59N 30°02' W 094°02'0 0.0
2018-May-25 14:29N 30°02' W 094°02'0 0.0
2018-May-25 13:59N 30°02' W 094°02'0 0.0
2018-May-25 13:29N 30°02' W 094°02'0 0.0
2018-May-25 12:59N 30°02' W 094°02'0 0.0
2018-May-25 12:29N 30°02' W 094°02'0 0.0
2018-May-25 11:59N 30°02' W 094°02'0 0.0
2018-May-25 11:29N 30°02' W 094°02'0 0.0
2018-May-25 10:59N 30°02' W 094°02'0 0.0
2018-May-25 10:26N 30°02' W 094°02'0 0.0
2018-May-25 09:59N 30°02' W 094°02'0 0.0
2018-May-25 09:29N 30°02' W 094°02'0 0.0
2018-May-25 08:59N 30°02' W 094°02'0 0.0
2018-May-25 08:29N 30°02' W 094°02'0 0.0
2018-May-25 07:59N 30°02' W 094°02'0 0.0
2018-May-25 07:29N 30°02' W 094°02'0 0.0
2018-May-25 06:59N 30°02' W 094°02'0 0.0
2018-May-25 06:29N 30°02' W 094°02'0 0.0
2018-May-25 05:59N 30°02' W 094°02'0 0.0
2018-May-25 05:29N 30°02' W 094°02'0 0.0
2018-May-25 04:59N 30°02' W 094°02'0 0.0
2018-May-25 04:29N 30°02' W 094°02'0 0.0
2018-May-25 03:59N 30°02' W 094°02'0 0.0
2018-May-25 03:29N 30°02' W 094°02'0 0.0
2018-May-25 02:59N 30°02' W 094°02'0 0.0
2018-May-25 02:29N 30°02' W 094°02'0 0.0
2018-May-25 01:59N 30°02' W 094°02'0 0.0
2018-May-25 01:29N 30°02' W 094°02'0 0.0
2018-May-25 00:59N 30°02' W 094°02'0 0.0
2018-May-25 00:29N 30°02' W 094°02'0 0.0
2018-May-24 23:59N 30°02' W 094°02'0 0.0
2018-May-24 23:29N 30°02' W 094°02'0 0.0
2018-May-24 22:59N 30°02' W 094°02'0 0.0
2018-May-24 22:29N 30°02' W 094°02'0 0.0
2018-May-24 21:59N 30°02' W 094°02'0 0.0
2018-May-24 21:29N 30°02' W 094°02'0 0.0
2018-May-24 20:59N 30°02' W 094°02'0 0.0
2018-May-24 20:29N 30°02' W 094°02'0 0.0
2018-May-24 19:59N 30°02' W 094°02'0 0.0
2018-May-24 19:29N 30°02' W 094°02'0 0.0
2018-May-24 18:59N 30°02' W 094°02'0 0.0
2018-May-24 18:29N 30°02' W 094°02'0 0.0
2018-May-24 17:59N 30°02' W 094°02'0 0.0
2018-May-24 17:29N 30°02' W 094°02'0 0.0
2018-May-24 16:59N 30°02' W 094°02'0 0.0
2018-May-24 16:29N 30°02' W 094°02'0 0.0
2018-May-24 15:59N 30°02' W 094°02'0 0.0
2018-May-24 15:29N 30°02' W 094°02'0 0.0
2018-May-24 14:59N 30°02' W 094°02'0 0.0
2018-May-24 14:29N 30°02' W 094°02'0 0.0
2018-May-24 13:59N 30°02' W 094°02'0 0.0
2018-May-24 13:29N 30°02' W 094°02'0 0.0
2018-May-24 08:59N 30°02' W 094°02'0 0.0
2018-May-24 08:29N 30°02' W 094°02'0 0.0
2018-May-24 07:59N 30°02' W 094°02'0 0.0
2018-May-24 07:29N 30°02' W 094°02'0 0.0
2018-May-24 06:59N 30°02' W 094°02'0 0.0
2018-May-24 06:29N 30°02' W 094°02'0 0.0
2018-May-24 05:59N 30°02' W 094°02'0 0.0
2018-May-24 05:29N 30°02' W 094°02'0 0.0
2018-May-24 04:59N 30°02' W 094°02'0 0.0
2018-May-24 04:29N 30°02' W 094°02'0 0.0
2018-May-24 03:59N 30°02' W 094°02'0 0.0
2018-May-24 03:29N 30°02' W 094°02'0 0.0
2018-May-24 02:59N 30°02' W 094°02'0 0.0
2018-May-24 02:29N 30°02' W 094°02'0 0.0
2018-May-24 01:59N 30°02' W 094°02'0 0.0
2018-May-24 01:29N 30°02' W 094°02'0 0.0
2018-May-24 00:59N 30°02' W 094°02'0 0.0
2018-May-24 00:29N 30°02' W 094°02'0 0.0
2018-May-23 23:59N 30°02' W 094°02'0 0.0
2018-May-23 23:29N 30°02' W 094°02'0 0.0
2018-May-23 22:59N 30°02' W 094°02'0 0.0
2018-May-23 22:29N 30°02' W 094°02'0 0.0
2018-May-23 21:59N 30°02' W 094°02'0 0.0
2018-May-23 21:26N 30°02' W 094°02'0 0.0
2018-May-23 20:59N 30°02' W 094°02'0 0.0
2018-May-23 20:29N 30°02' W 094°02'0 0.0
2018-May-23 19:59N 30°02' W 094°02'0 0.0
2018-May-23 19:29N 30°02' W 094°02'0 0.0
2018-May-23 18:59N 30°02' W 094°02'0 0.0
2018-May-23 18:29N 30°02' W 094°02'0 0.0
2018-May-23 17:59N 30°02' W 094°02'0 0.0
2018-May-23 17:29N 30°02' W 094°02'0 0.0
2018-May-23 16:59N 30°02' W 094°02'0 0.0
2018-May-23 16:29N 30°02' W 094°02'0 0.0
2018-May-23 15:59N 30°02' W 094°02'0 0.0
2018-May-23 15:29N 30°02' W 094°02'0 0.0
2018-May-23 14:59N 30°02' W 094°02'0 0.0
2018-May-23 14:29N 30°02' W 094°02'0 0.0
2018-May-23 13:59N 30°02' W 094°02'0 0.0
2018-May-23 13:29N 30°02' W 094°02'0 0.0
2018-May-23 12:59N 30°02' W 094°02'0 0.0
2018-May-23 12:29N 30°02' W 094°02'0 0.0
2018-May-23 11:59N 30°02' W 094°02'0 0.0
2018-May-23 11:29N 30°02' W 094°02'0 0.0
2018-May-23 10:59N 30°02' W 094°02'0 0.0
2018-May-23 10:29N 30°02' W 094°02'0 0.0
2018-May-23 09:59N 30°02' W 094°02'0 0.0
2018-May-23 09:29N 30°02' W 094°02'0 0.0
2018-May-23 08:59N 30°02' W 094°02'0 0.0
2018-May-23 08:29N 30°02' W 094°02'0 0.0
2018-May-23 07:59N 30°02' W 094°02'0 0.0
2018-May-23 07:29N 30°02' W 094°02'0 0.0
2018-May-23 06:59N 30°02' W 094°02'0 0.0
2018-May-23 06:29N 30°02' W 094°02'0 0.2
2018-May-23 06:00N 30°02' W 094°02'2 3.9
2018-May-23 05:31N 30°01' W 094°00'3 6.0
2018-May-23 05:00N 29°60' W 093°57'1 2.4
2018-May-23 04:31N 29°60' W 093°56'0 0.1
2018-May-23 04:00N 29°60' W 093°56'0 0.0
2018-May-23 03:30N 29°60' W 093°56'0 0.0
2018-May-23 03:00N 29°60' W 093°56'0 0.0
2018-May-23 02:30N 29°60' W 093°56'0 0.0
2018-May-23 02:00N 29°60' W 093°56'0 0.0
2018-May-23 01:30N 29°60' W 093°56'0 0.0
2018-May-23 01:00N 29°60' W 093°56'0 0.0
2018-May-23 00:30N 29°60' W 093°56'0 0.0
2018-May-23 00:00N 29°60' W 093°56'0 0.0
2018-May-22 23:30N 29°60' W 093°56'0 0.0
2018-May-22 23:00N 29°60' W 093°56'0 0.0
2018-May-22 22:30N 29°60' W 093°56'0 0.0
2018-May-22 22:00N 29°60' W 093°56'0 0.0
2018-May-22 21:30N 29°60' W 093°56'0 0.0
2018-May-22 21:00N 29°60' W 093°56'0 0.0
2018-May-22 20:30N 29°60' W 093°56'0 0.0
2018-May-22 20:00N 29°60' W 093°56'0 0.0
2018-May-22 19:30N 29°60' W 093°56'0 0.0
2018-May-22 19:00N 29°60' W 093°56'0 0.0
2018-May-22 18:30N 29°60' W 093°56'0 0.0
2018-May-22 18:00N 29°60' W 093°56'0 0.0
2018-May-22 17:30N 29°60' W 093°56'0 0.0
2018-May-22 17:00N 29°60' W 093°56'0 0.0
2018-May-22 16:30N 29°60' W 093°56'0 0.0
2018-May-22 16:00N 29°60' W 093°56'0 0.0
2018-May-22 15:30N 29°60' W 093°56'0 0.1
2018-May-22 15:00N 29°60' W 093°56'0 0.1
2018-May-22 14:30N 29°60' W 093°56'0 0.0
2018-May-22 14:00N 29°60' W 093°56'0 0.0
2018-May-22 13:30N 29°60' W 093°56'0 0.0
2018-May-22 13:00N 29°60' W 093°56'0 0.0
2018-May-22 12:30N 29°60' W 093°56'0 0.0
2018-May-22 12:00N 29°60' W 093°56'0 0.0
2018-May-22 11:30N 29°60' W 093°56'0 0.0
2018-May-22 11:00N 29°60' W 093°56'0 0.0
2018-May-22 10:30N 29°60' W 093°56'0 0.0
2018-May-22 10:00N 29°60' W 093°56'0 0.0
2018-May-22 09:30N 29°60' W 093°56'0 0.0
2018-May-22 09:00N 29°60' W 093°56'0 0.0
2018-May-22 08:30N 29°60' W 093°56'0 0.0
2018-May-22 08:00N 29°60' W 093°56'0 0.0
2018-May-22 07:30N 29°60' W 093°56'0 0.0
2018-May-22 07:00N 29°60' W 093°56'0 0.0
2018-May-22 06:30N 29°60' W 093°56'0 0.0
2018-May-22 06:00N 29°60' W 093°56'0 0.0
2018-May-22 05:30N 29°60' W 093°56'0 0.0
2018-May-22 05:00N 29°60' W 093°56'0 0.0
2018-May-22 04:30N 29°60' W 093°56'0 0.0
2018-May-22 04:00N 29°60' W 093°56'0 0.0
2018-May-22 03:30N 29°60' W 093°56'0 0.0
2018-May-22 03:00N 29°60' W 093°56'0 0.0
2018-May-22 02:30N 29°60' W 093°56'0 0.0
2018-May-22 02:00N 29°60' W 093°56'0 0.0
2018-May-22 01:30N 29°60' W 093°56'0 0.0
2018-May-22 01:00N 29°60' W 093°56'0 0.0
2018-May-22 00:30N 29°60' W 093°56'0 0.0
2018-May-22 00:00N 29°60' W 093°56'0 0.0
2018-May-21 23:30N 29°60' W 093°56'0 0.0
2018-May-21 23:00N 29°60' W 093°56'0 0.0
2018-May-21 22:30N 29°60' W 093°56'0 0.0
2018-May-21 22:00N 29°60' W 093°56'0 0.0
2018-May-21 21:30N 29°60' W 093°56'0 0.0
2018-May-21 21:00N 29°60' W 093°56'0 0.2
2018-May-21 20:30N 29°60' W 093°56'0 0.0
2018-May-21 20:00N 29°60' W 093°56'0 0.0
2018-May-21 19:30N 29°60' W 093°56'0 0.1
2018-May-21 19:00N 29°60' W 093°56'0 0.1
2018-May-21 18:30N 29°60' W 093°56'0 0.3
2018-May-21 18:00N 29°59' W 093°56'3 6.9
2018-May-21 17:30N 29°59' W 093°52'4 7.6
2018-May-21 17:00N 29°55' W 093°53'5 9.3
2018-May-21 16:30N 29°51' W 093°56'4 8.1
2018-May-21 16:00N 29°47' W 093°57'5 9.7
2018-May-21 15:30N 29°44' W 093°53'713.4
2018-May-21 15:01N 29°38' W 093°49'3 6.3
2018-May-21 14:30N 29°36' W 093°47'3 5.4
2018-May-21 14:00N 29°35' W 093°44'2 3.0
2018-May-21 13:29N 29°35' W 093°42'0 0.0
2018-May-21 12:59N 29°35' W 093°42'0 0.0
2018-May-21 12:29N 29°35' W 093°42'0 0.0
2018-May-21 11:59N 29°35' W 093°42'0 0.0
2018-May-21 11:29N 29°35' W 093°42'0 0.0
2018-May-21 10:59N 29°35' W 093°42'0 0.0
2018-May-21 10:29N 29°35' W 093°42'0 0.1
2018-May-21 09:59N 29°35' W 093°42'0 0.0
2018-May-21 09:29N 29°35' W 093°42'0 0.0
2018-May-21 08:59N 29°35' W 093°42'0 0.0
2018-May-21 08:29N 29°35' W 093°42'0 0.0
2018-May-21 07:59N 29°35' W 093°42'0 0.0
2018-May-21 07:26N 29°35' W 093°42'0 0.0
2018-May-21 06:59N 29°35' W 093°42'0 0.0
2018-May-21 06:29N 29°35' W 093°42'0 0.0
2018-May-21 05:59N 29°35' W 093°42'0 0.0
2018-May-21 05:29N 29°35' W 093°42'0 0.0
2018-May-21 04:59N 29°35' W 093°42'0 0.0
2018-May-21 04:27N 29°35' W 093°42'0 0.0
2018-May-21 04:00N 29°35' W 093°42'0 0.1
2018-May-21 03:30N 29°35' W 093°42'1 2.6
2018-May-21 03:00N 29°35' W 093°44'3 5.6
2018-May-21 02:30N 29°32' W 093°44'5 9.7
2018-May-21 02:00N 29°29' W 093°40'611.4
2018-May-21 01:28N 29°23' W 093°40'510.8
2018-May-21 00:59N 29°17' W 093°40'  
Track history (hours):
 
Tides and Currents Weather Stations Pressure Air Temp Water Temp Dewpoint Dewpoint Depression Visibility Wind Speed Wind Dir Waves Ship Positions

High Performance

Last reported at 2018-May-28 23:10 UTC. Time now 2018-Jun-20 16:58 UTC.
Position N 28°50' W 094°25'.
Warning: this ship's position is 22 days out of date.

Length 182 m; draft 11.2 m.

Type: Tanker. MMSI: 636012731.

Date/timePositionNaut miles runAvg speedWind from/ knotsBaromVisibWave heightAir tempDewpointWater temp
2018-May-28 23:10N 28°50' W 094°25'213.6
2018-May-28 23:00N 28°53' W 094°25'913.7
2018-May-28 22:22N 29°01' W 094°26'713.4
2018-May-28 21:53N 29°08' W 094°27'613.6
2018-May-28 21:28N 29°12' W 094°31'612.7
2018-May-28 21:00N 29°15' W 094°37'4 8.8
2018-May-28 20:30N 29°13' W 094°42'0 0.7
2018-May-28 19:58N 29°13' W 094°42'0 0.0
2018-May-28 19:28N 29°13' W 094°42'0 0.0
2018-May-28 18:58N 29°13' W 094°42'0 0.0
2018-May-28 18:28N 29°13' W 094°42'0 0.0
2018-May-28 17:58N 29°13' W 094°42'0 0.0
2018-May-28 17:28N 29°13' W 094°42'0 0.0
2018-May-28 16:58N 29°13' W 094°42'0 0.2
2018-May-28 16:29N 29°13' W 094°42'1 2.8
2018-May-28 15:58N 29°14' W 094°41'3 7.1
2018-May-28 15:31N 29°16' W 094°38'4 7.0
2018-May-28 14:59N 29°19' W 094°39'611.9
2018-May-28 14:30N 29°21' W 094°46'510.9
2018-May-28 14:00N 29°25' W 094°50'510.8
2018-May-28 13:30N 29°30' W 094°52'510.6
2018-May-28 13:00N 29°34' W 094°55'510.0
2018-May-28 12:30N 29°39' W 094°58'5 9.4
2018-May-28 12:00N 29°42' W 095°01'4 7.9
2018-May-28 11:30N 29°45' W 095°04'1 2.8
2018-May-28 10:59N 29°45' W 095°06'0 0.0
2018-May-28 10:23N 29°45' W 095°06'0 0.0
2018-May-28 09:44N 29°45' W 095°06'0 0.0
2018-May-28 09:29N 29°45' W 095°06'0 0.0
2018-May-27 14:59N 29°45' W 095°06'0 0.0
2018-May-27 14:29N 29°45' W 095°06'0 0.0
2018-May-27 13:56N 29°45' W 095°06'0 0.0
2018-May-27 13:23N 29°45' W 095°06'0 0.0
2018-May-27 12:17N 29°45' W 095°06'0 0.0
2018-May-27 01:26N 29°45' W 095°06'0 0.0
2018-May-26 23:24N 29°45' W 095°06'1 3.2
2018-May-26 23:00N 29°46' W 095°05'4 8.2
2018-May-26 22:30N 29°43' W 095°01'5 9.6
2018-May-26 22:00N 29°39' W 094°58'611.4
2018-May-26 21:29N 29°34' W 094°55'612.1
2018-May-26 21:00N 29°29' W 094°51'612.3
2018-May-26 20:30N 29°23' W 094°49'611.3
2018-May-26 20:00N 29°21' W 094°43'612.5
2018-May-26 19:30N 29°18' W 094°36'3 5.7
2018-May-26 19:00N 29°17' W 094°33'0 0.1
2018-May-26 18:30N 29°18' W 094°33'0 0.0
2018-May-26 18:00N 29°18' W 094°33'0 0.0
2018-May-26 16:52N 29°18' W 094°33'0 0.2
2018-May-26 16:27N 29°18' W 094°33'2 4.0
2018-May-26 16:00N 29°17' W 094°31'4 6.8
2018-May-26 15:28N 29°14' W 094°30'44 3.6
2018-May-26 03:20N 29°14' W 093°39'512.7
2018-May-26 02:58N 29°19' W 093°40'613.0
2018-May-26 02:30N 29°25' W 093°40'611.3
2018-May-26 02:00N 29°30' W 093°41'612.7
2018-May-26 01:30N 29°35' W 093°47'611.5
2018-May-26 01:00N 29°40' W 093°50'612.3
2018-May-26 00:30N 29°45' W 093°53'5 9.2
2018-May-26 00:00N 29°48' W 093°57'4 7.7
2018-May-25 23:30N 29°52' W 093°56'4 8.2
2018-May-25 23:00N 29°55' W 093°53'3 6.6
2018-May-25 22:30N 29°58' W 093°51'3 6.7
2018-May-25 22:00N 29°59' W 093°55'3 6.2
2018-May-25 21:30N 30°01' W 093°58'2 4.5
2018-May-25 21:00N 30°01' W 094°00'2 3.2
2018-May-25 20:31N 30°02' W 094°02'0 0.0
2018-May-25 19:59N 30°02' W 094°02'0 0.0
2018-May-25 19:29N 30°02' W 094°02'0 0.0
2018-May-25 18:59N 30°02' W 094°02'0 0.0
2018-May-25 18:29N 30°02' W 094°02'0 0.0
2018-May-25 17:59N 30°02' W 094°02'0 0.0
2018-May-25 17:29N 30°02' W 094°02'0 0.0
2018-May-25 16:59N 30°02' W 094°02'0 0.0
2018-May-25 16:29N 30°02' W 094°02'0 0.0
2018-May-25 15:59N 30°02' W 094°02'0 0.0
2018-May-25 15:29N 30°02' W 094°02'0 0.0
2018-May-25 14:59N 30°02' W 094°02'0 0.0
2018-May-25 14:29N 30°02' W 094°02'0 0.0
2018-May-25 13:59N 30°02' W 094°02'0 0.0
2018-May-25 13:29N 30°02' W 094°02'0 0.0
2018-May-25 12:59N 30°02' W 094°02'0 0.0
2018-May-25 12:29N 30°02' W 094°02'0 0.0
2018-May-25 11:59N 30°02' W 094°02'0 0.0
2018-May-25 11:29N 30°02' W 094°02'0 0.0
2018-May-25 10:59N 30°02' W 094°02'0 0.0
2018-May-25 10:26N 30°02' W 094°02'0 0.0
2018-May-25 09:59N 30°02' W 094°02'0 0.0
2018-May-25 09:29N 30°02' W 094°02'0 0.0
2018-May-25 08:59N 30°02' W 094°02'0 0.0
2018-May-25 08:29N 30°02' W 094°02'0 0.0
2018-May-25 07:59N 30°02' W 094°02'0 0.0
2018-May-25 07:29N 30°02' W 094°02'0 0.0
2018-May-25 06:59N 30°02' W 094°02'0 0.0
2018-May-25 06:29N 30°02' W 094°02'0 0.0
2018-May-25 05:59N 30°02' W 094°02'0 0.0
2018-May-25 05:29N 30°02' W 094°02'0 0.0
2018-May-25 04:59N 30°02' W 094°02'0 0.0
2018-May-25 04:29N 30°02' W 094°02'0 0.0
2018-May-25 03:59N 30°02' W 094°02'0 0.0
2018-May-25 03:29N 30°02' W 094°02'0 0.0
2018-May-25 02:59N 30°02' W 094°02'0 0.0
2018-May-25 02:29N 30°02' W 094°02'0 0.0
2018-May-25 01:59N 30°02' W 094°02'0 0.0
2018-May-25 01:29N 30°02' W 094°02'0 0.0
2018-May-25 00:59N 30°02' W 094°02'0 0.0
2018-May-25 00:29N 30°02' W 094°02'0 0.0
2018-May-24 23:59N 30°02' W 094°02'0 0.0
2018-May-24 23:29N 30°02' W 094°02'0 0.0
2018-May-24 22:59N 30°02' W 094°02'0 0.0
2018-May-24 22:29N 30°02' W 094°02'0 0.0
2018-May-24 21:59N 30°02' W 094°02'0 0.0
2018-May-24 21:29N 30°02' W 094°02'0 0.0
2018-May-24 20:59N 30°02' W 094°02'0 0.0
2018-May-24 20:29N 30°02' W 094°02'0 0.0
2018-May-24 19:59N 30°02' W 094°02'0 0.0
2018-May-24 19:29N 30°02' W 094°02'0 0.0
2018-May-24 18:59N 30°02' W 094°02'0 0.0
2018-May-24 18:29N 30°02' W 094°02'0 0.0
2018-May-24 17:59N 30°02' W 094°02'0 0.0
2018-May-24 17:29N 30°02' W 094°02'0 0.0
2018-May-24 16:59N 30°02' W 094°02'0 0.0
2018-May-24 16:29N 30°02' W 094°02'0 0.0
2018-May-24 15:59N 30°02' W 094°02'0 0.0
2018-May-24 15:29N 30°02' W 094°02'0 0.0
2018-May-24 14:59N 30°02' W 094°02'0 0.0
2018-May-24 14:29N 30°02' W 094°02'0 0.0
2018-May-24 13:59N 30°02' W 094°02'0 0.0
2018-May-24 13:29N 30°02' W 094°02'0 0.0
2018-May-24 08:59N 30°02' W 094°02'0 0.0
2018-May-24 08:29N 30°02' W 094°02'0 0.0
2018-May-24 07:59N 30°02' W 094°02'0 0.0
2018-May-24 07:29N 30°02' W 094°02'0 0.0
2018-May-24 06:59N 30°02' W 094°02'0 0.0
2018-May-24 06:29N 30°02' W 094°02'0 0.0
2018-May-24 05:59N 30°02' W 094°02'0 0.0
2018-May-24 05:29N 30°02' W 094°02'0 0.0
2018-May-24 04:59N 30°02' W 094°02'0 0.0
2018-May-24 04:29N 30°02' W 094°02'0 0.0
2018-May-24 03:59N 30°02' W 094°02'0 0.0
2018-May-24 03:29N 30°02' W 094°02'0 0.0
2018-May-24 02:59N 30°02' W 094°02'0 0.0
2018-May-24 02:29N 30°02' W 094°02'0 0.0
2018-May-24 01:59N 30°02' W 094°02'0 0.0
2018-May-24 01:29N 30°02' W 094°02'0 0.0
2018-May-24 00:59N 30°02' W 094°02'0 0.0
2018-May-24 00:29N 30°02' W 094°02'0 0.0
2018-May-23 23:59N 30°02' W 094°02'0 0.0
2018-May-23 23:29N 30°02' W 094°02'0 0.0
2018-May-23 22:59N 30°02' W 094°02'0 0.0
2018-May-23 22:29N 30°02' W 094°02'0 0.0
2018-May-23 21:59N 30°02' W 094°02'0 0.0
2018-May-23 21:26N 30°02' W 094°02'0 0.0
2018-May-23 20:59N 30°02' W 094°02'0 0.0
2018-May-23 20:29N 30°02' W 094°02'0 0.0
2018-May-23 19:59N 30°02' W 094°02'0 0.0
2018-May-23 19:29N 30°02' W 094°02'0 0.0
2018-May-23 18:59N 30°02' W 094°02'0 0.0
2018-May-23 18:29N 30°02' W 094°02'0 0.0
2018-May-23 17:59N 30°02' W 094°02'0 0.0
2018-May-23 17:29N 30°02' W 094°02'0 0.0
2018-May-23 16:59N 30°02' W 094°02'0 0.0
2018-May-23 16:29N 30°02' W 094°02'0 0.0
2018-May-23 15:59N 30°02' W 094°02'0 0.0
2018-May-23 15:29N 30°02' W 094°02'0 0.0
2018-May-23 14:59N 30°02' W 094°02'0 0.0
2018-May-23 14:29N 30°02' W 094°02'0 0.0
2018-May-23 13:59N 30°02' W 094°02'0 0.0
2018-May-23 13:29N 30°02' W 094°02'0 0.0
2018-May-23 12:59N 30°02' W 094°02'0 0.0
2018-May-23 12:29N 30°02' W 094°02'0 0.0
2018-May-23 11:59N 30°02' W 094°02'0 0.0
2018-May-23 11:29N 30°02' W 094°02'0 0.0
2018-May-23 10:59N 30°02' W 094°02'0 0.0
2018-May-23 10:29N 30°02' W 094°02'0 0.0
2018-May-23 09:59N 30°02' W 094°02'0 0.0
2018-May-23 09:29N 30°02' W 094°02'0 0.0
2018-May-23 08:59N 30°02' W 094°02'0 0.0
2018-May-23 08:29N 30°02' W 094°02'0 0.0
2018-May-23 07:59N 30°02' W 094°02'0 0.0
2018-May-23 07:29N 30°02' W 094°02'0 0.0
2018-May-23 06:59N 30°02' W 094°02'0 0.0
2018-May-23 06:29N 30°02' W 094°02'0 0.2
2018-May-23 06:00N 30°02' W 094°02'2 3.9
2018-May-23 05:31N 30°01' W 094°00'3 6.0
2018-May-23 05:00N 29°60' W 093°57'1 2.4
2018-May-23 04:31N 29°60' W 093°56'0 0.1
2018-May-23 04:00N 29°60' W 093°56'0 0.0
2018-May-23 03:30N 29°60' W 093°56'0 0.0
2018-May-23 03:00N 29°60' W 093°56'0 0.0
2018-May-23 02:30N 29°60' W 093°56'0 0.0
2018-May-23 02:00N 29°60' W 093°56'0 0.0
2018-May-23 01:30N 29°60' W 093°56'0 0.0
2018-May-23 01:00N 29°60' W 093°56'0 0.0
2018-May-23 00:30N 29°60' W 093°56'0 0.0
2018-May-23 00:00N 29°60' W 093°56'0 0.0
2018-May-22 23:30N 29°60' W 093°56'0 0.0
2018-May-22 23:00N 29°60' W 093°56'0 0.0
2018-May-22 22:30N 29°60' W 093°56'0 0.0
2018-May-22 22:00N 29°60' W 093°56'0 0.0
2018-May-22 21:30N 29°60' W 093°56'0 0.0
2018-May-22 21:00N 29°60' W 093°56'0 0.0
2018-May-22 20:30N 29°60' W 093°56'0 0.0
2018-May-22 20:00N 29°60' W 093°56'0 0.0
2018-May-22 19:30N 29°60' W 093°56'0 0.0
2018-May-22 19:00N 29°60' W 093°56'0 0.0
2018-May-22 18:30N 29°60' W 093°56'0 0.0
2018-May-22 18:00N 29°60' W 093°56'0 0.0
2018-May-22 17:30N 29°60' W 093°56'0 0.0
2018-May-22 17:00N 29°60' W 093°56'0 0.0
2018-May-22 16:30N 29°60' W 093°56'0 0.0
2018-May-22 16:00N 29°60' W 093°56'0 0.0
2018-May-22 15:30N 29°60' W 093°56'0 0.1
2018-May-22 15:00N 29°60' W 093°56'0 0.1
2018-May-22 14:30N 29°60' W 093°56'0 0.0
2018-May-22 14:00N 29°60' W 093°56'0 0.0
2018-May-22 13:30N 29°60' W 093°56'0 0.0
2018-May-22 13:00N 29°60' W 093°56'0 0.0
2018-May-22 12:30N 29°60' W 093°56'0 0.0
2018-May-22 12:00N 29°60' W 093°56'0 0.0
2018-May-22 11:30N 29°60' W 093°56'0 0.0
2018-May-22 11:00N 29°60' W 093°56'0 0.0
2018-May-22 10:30N 29°60' W 093°56'0 0.0
2018-May-22 10:00N 29°60' W 093°56'0 0.0
2018-May-22 09:30N 29°60' W 093°56'0 0.0
2018-May-22 09:00N 29°60' W 093°56'0 0.0
2018-May-22 08:30N 29°60' W 093°56'0 0.0
2018-May-22 08:00N 29°60' W 093°56'0 0.0
2018-May-22 07:30N 29°60' W 093°56'0 0.0
2018-May-22 07:00N 29°60' W 093°56'0 0.0
2018-May-22 06:30N 29°60' W 093°56'0 0.0
2018-May-22 06:00N 29°60' W 093°56'0 0.0
2018-May-22 05:30N 29°60' W 093°56'0 0.0
2018-May-22 05:00N 29°60' W 093°56'0 0.0
2018-May-22 04:30N 29°60' W 093°56'0 0.0
2018-May-22 04:00N 29°60' W 093°56'0 0.0
2018-May-22 03:30N 29°60' W 093°56'0 0.0
2018-May-22 03:00N 29°60' W 093°56'0 0.0
2018-May-22 02:30N 29°60' W 093°56'0 0.0
2018-May-22 02:00N 29°60' W 093°56'0 0.0
2018-May-22 01:30N 29°60' W 093°56'0 0.0
2018-May-22 01:00N 29°60' W 093°56'0 0.0
2018-May-22 00:30N 29°60' W 093°56'0 0.0
2018-May-22 00:00N 29°60' W 093°56'0 0.0
2018-May-21 23:30N 29°60' W 093°56'0 0.0
2018-May-21 23:00N 29°60' W 093°56'0 0.0
2018-May-21 22:30N 29°60' W 093°56'0 0.0
2018-May-21 22:00N 29°60' W 093°56'0 0.0
2018-May-21 21:30N 29°60' W 093°56'0 0.0
2018-May-21 21:00N 29°60' W 093°56'0 0.2
2018-May-21 20:30N 29°60' W 093°56'0 0.0
2018-May-21 20:00N 29°60' W 093°56'0 0.0
2018-May-21 19:30N 29°60' W 093°56'0 0.1
2018-May-21 19:00N 29°60' W 093°56'0 0.1
2018-May-21 18:30N 29°60' W 093°56'0 0.3
2018-May-21 18:00N 29°59' W 093°56'3 6.9
2018-May-21 17:30N 29°59' W 093°52'4 7.6
2018-May-21 17:00N 29°55' W 093°53'5 9.3
2018-May-21 16:30N 29°51' W 093°56'4 8.1
2018-May-21 16:00N 29°47' W 093°57'5 9.7
2018-May-21 15:30N 29°44' W 093°53'713.4
2018-May-21 15:01N 29°38' W 093°49'3 6.3
2018-May-21 14:30N 29°36' W 093°47'3 5.4
2018-May-21 14:00N 29°35' W 093°44'2 3.0
2018-May-21 13:29N 29°35' W 093°42'0 0.0
2018-May-21 12:59N 29°35' W 093°42'0 0.0
2018-May-21 12:29N 29°35' W 093°42'0 0.0
2018-May-21 11:59N 29°35' W 093°42'0 0.0
2018-May-21 11:29N 29°35' W 093°42'0 0.0
2018-May-21 10:59N 29°35' W 093°42'0 0.0
2018-May-21 10:29N 29°35' W 093°42'0 0.1
2018-May-21 09:59N 29°35' W 093°42'0 0.0
2018-May-21 09:29N 29°35' W 093°42'0 0.0
2018-May-21 08:59N 29°35' W 093°42'0 0.0
2018-May-21 08:29N 29°35' W 093°42'0 0.0
2018-May-21 07:59N 29°35' W 093°42'0 0.0
2018-May-21 07:26N 29°35' W 093°42'0 0.0
2018-May-21 06:59N 29°35' W 093°42'0 0.0
2018-May-21 06:29N 29°35' W 093°42'0 0.0
2018-May-21 05:59N 29°35' W 093°42'0 0.0
2018-May-21 05:29N 29°35' W 093°42'0 0.0
2018-May-21 04:59N 29°35' W 093°42'0 0.0
2018-May-21 04:27N 29°35' W 093°42'0 0.0
2018-May-21 04:00N 29°35' W 093°42'0 0.1
2018-May-21 03:30N 29°35' W 093°42'1 2.6
2018-May-21 03:00N 29°35' W 093°44'3 5.6
2018-May-21 02:30N 29°32' W 093°44'5 9.7
2018-May-21 02:00N 29°29' W 093°40'611.4
2018-May-21 01:28N 29°23' W 093°40'510.8
2018-May-21 00:59N 29°17' W 093°40'  

Dump ship's entire track history